createdAt,value
2022-12-01T00:01:31.596Z,100419.59
2022-12-01T00:04:01.228Z,100419.59
2022-12-01T00:06:30.456Z,100416.91
2022-12-01T00:09:20.038Z,100417.94
2022-12-01T00:11:49.762Z,100425.22
2022-12-01T00:14:20.556Z,100420.84
2022-12-01T00:16:52.505Z,100423.75
2022-12-01T00:19:24.051Z,100422.06
2022-12-01T00:21:53.527Z,100422.31
2022-12-01T00:24:23.561Z,100421.47
2022-12-01T00:26:53.147Z,100415.44
2022-12-01T00:29:23.791Z,100425.41
2022-12-01T00:31:55.758Z,100424.56
2022-12-01T00:34:26.289Z,100424.56
2022-12-01T00:36:55.669Z,100429.34
2022-12-01T00:39:23.577Z,100425.59
2022-12-01T00:41:54.667Z,100416.69
2022-12-01T00:44:28.877Z,100419.59
2022-12-01T00:46:56.792Z,100418.75
2022-12-01T00:49:26.050Z,100415.25
2022-12-01T00:51:55.155Z,100409.22
2022-12-01T00:54:25.448Z,100410.91
2022-12-01T00:56:53.354Z,100409.22
2022-12-01T00:59:21.401Z,100413.78
2022-12-01T01:01:50.814Z,100408.41
2022-12-01T01:04:18.762Z,100418.97
2022-12-01T01:06:48.026Z,100421.69
2022-12-01T01:09:16.661Z,100419.59
2022-12-01T01:11:44.614Z,100414.41
2022-12-01T01:14:12.504Z,100433.28
2022-12-01T01:16:40.451Z,100423.31
2022-12-01T01:19:13.487Z,100423.31
2022-12-01T01:21:41.447Z,100429.75
2022-12-01T01:24:09.579Z,100430.78
2022-12-01T01:26:39.047Z,100423.75
2022-12-01T01:29:07.762Z,100423.13
2022-12-01T01:31:35.666Z,100430.38
2022-12-01T01:34:04.913Z,100422.28
2022-12-01T01:36:35.786Z,100415.44
2022-12-01T01:39:05.073Z,100426.22
2022-12-01T01:41:34.371Z,100420.84
2022-12-01T01:44:04.027Z,100409.22
2022-12-01T01:46:34.209Z,100409.22
2022-12-01T01:49:07.025Z,100423.72
2022-12-01T01:51:41.712Z,100417.50
2022-12-01T01:54:10.842Z,100424.97
2022-12-01T01:56:41.185Z,100407.16
2022-12-01T01:59:08.854Z,100408.19
2022-12-01T02:01:37.673Z,100412.53
2022-12-01T02:04:06.647Z,100403.63
2022-12-01T02:06:35.548Z,100398.44
2022-12-01T02:09:05.733Z,100411.72
2022-12-01T02:11:51.814Z,100412.31
2022-12-01T02:14:33.765Z,100414.19
2022-12-01T02:17:03.364Z,100409.63
2022-12-01T02:19:47.662Z,100414.00
2022-12-01T02:22:21.727Z,100415.00
2022-12-01T02:25:10.432Z,100411.28
2022-12-01T02:27:46.491Z,100411.28
2022-12-01T02:30:14.412Z,100404.47
2022-12-01T02:32:46.997Z,100412.53
2022-12-01T02:35:15.883Z,100407.16
2022-12-01T02:37:46.259Z,100405.50
2022-12-01T02:40:16.355Z,100400.94
2022-12-01T02:42:52.353Z,100398.44
2022-12-01T02:45:22.171Z,100398.44
2022-12-01T02:47:51.293Z,100394.91
2022-12-01T02:50:18.944Z,100391.41
2022-12-01T02:52:46.566Z,100412.13
2022-12-01T02:55:14.304Z,100398.66
2022-12-01T02:57:41.986Z,100403.19
2022-12-01T03:00:13.858Z,100396.16
2022-12-01T03:02:43.631Z,100396.16
2022-12-01T03:05:14.444Z,100393.47
2022-12-01T03:07:47.194Z,100398.84
2022-12-01T03:10:18.927Z,100395.13
2022-12-01T03:12:49.383Z,100405.06
2022-12-01T03:15:18.893Z,100404.25
2022-12-01T03:17:47.614Z,100406.94
2022-12-01T03:20:17.623Z,100400.50
2022-12-01T03:22:45.664Z,100414.81
2022-12-01T03:25:13.721Z,100405.88
2022-12-01T03:28:00.571Z,100404.88
2022-12-01T03:30:29.850Z,100405.50
2022-12-01T03:32:58.249Z,100410.03
2022-12-01T03:35:28.223Z,100404.66
2022-12-01T03:37:57.291Z,100412.53
2022-12-01T03:43:23.498Z,100412.94
2022-12-01T03:45:52.321Z,100404.06
2022-12-01T03:48:20.067Z,100395.13
2022-12-01T03:50:50.210Z,100403.19
2022-12-01T03:53:19.422Z,100414.19
2022-12-01T03:55:47.955Z,100398.03
2022-12-01T03:58:16.324Z,100402.59
2022-12-01T04:00:45.138Z,100398.22
2022-12-01T04:03:17.531Z,100395.53
2022-12-01T04:05:45.152Z,100396.56
2022-12-01T04:08:14.168Z,100399.28
2022-12-01T04:10:41.867Z,100398.44
2022-12-01T04:13:16.080Z,100397.59
2022-12-01T04:15:44.153Z,100393.06
2022-12-01T04:18:11.930Z,100402.97
2022-12-01T04:20:39.591Z,100394.06
2022-12-01T04:23:07.276Z,100391.38
2022-12-01T04:25:36.302Z,100386.81
2022-12-01T04:28:03.955Z,100379.78
2022-12-01T04:30:31.634Z,100381.44
2022-12-01T04:32:59.322Z,100393.88
2022-12-01T04:35:27.046Z,100394.69
2022-12-01T04:37:54.651Z,100398.22
2022-12-01T04:40:22.332Z,100389.31
2022-12-01T04:42:51.343Z,100400.91
2022-12-01T04:45:19.001Z,100406.31
2022-12-01T04:47:46.717Z,100406.31
2022-12-01T04:50:14.470Z,100409.00
2022-12-01T04:52:42.151Z,100413.75
2022-12-01T04:55:10.215Z,100416.66
2022-12-01T04:57:39.550Z,100411.28
2022-12-01T05:00:13.356Z,100422.06
2022-12-01T05:02:43.336Z,100419.56
2022-12-01T05:05:11.024Z,100414.16
2022-12-01T05:07:38.762Z,100424.13
2022-12-01T05:10:06.963Z,100420.59
2022-12-01T05:12:34.677Z,100423.28
2022-12-01T05:15:02.365Z,100415.41
2022-12-01T05:17:36.908Z,100416.22
2022-12-01T05:20:22.370Z,100413.75
2022-12-01T05:23:06.416Z,100421.63
2022-12-01T05:25:34.729Z,100416.22
2022-12-01T05:28:02.474Z,100406.72
2022-12-01T05:30:30.098Z,100421.84
2022-12-01T05:32:59.125Z,100423.72
2022-12-01T05:35:27.984Z,100416.66
2022-12-01T05:37:55.696Z,100411.25
2022-12-01T05:40:23.408Z,100422.66
2022-12-01T05:42:51.089Z,100416.22
2022-12-01T05:45:18.744Z,100431.38
2022-12-01T05:47:46.409Z,100429.50
2022-12-01T05:50:15.499Z,100428.69
2022-12-01T05:52:43.156Z,100417.91
2022-12-01T05:55:10.883Z,100421.44
2022-12-01T05:57:38.507Z,100431.16
2022-12-01T06:00:08.089Z,100434.91
2022-12-01T06:02:35.758Z,100433.25
2022-12-01T06:05:03.427Z,100431.38
2022-12-01T06:07:34.624Z,100424.13
2022-12-01T06:10:02.449Z,100435.72
2022-12-01T06:12:30.132Z,100431.16
2022-12-01T06:14:57.746Z,100434.06
2022-12-01T06:17:25.466Z,100429.50
2022-12-01T06:19:53.176Z,100426.63
2022-12-01T06:22:20.875Z,100430.34
2022-12-01T06:24:49.951Z,100430.34
2022-12-01T06:27:17.603Z,100441.09
2022-12-01T06:29:46.751Z,100430.34
2022-12-01T06:32:14.454Z,100431.16
2022-12-01T06:34:43.642Z,100432.00
2022-12-01T06:37:11.279Z,100439.03
2022-12-01T06:39:38.902Z,100439.03
2022-12-01T06:42:08.063Z,100434.47
2022-12-01T06:44:35.759Z,100428.28
2022-12-01T06:47:03.442Z,100429.09
2022-12-01T06:49:31.149Z,100443.19
2022-12-01T06:52:01.063Z,100444.03
2022-12-01T06:54:28.885Z,100446.53
2022-12-01T06:56:56.594Z,100447.34
2022-12-01T06:59:26.144Z,100447.97
2022-12-01T07:01:54.201Z,100444.25
2022-12-01T07:04:21.943Z,100443.22
2022-12-01T07:06:49.611Z,100443.22
2022-12-01T07:09:17.343Z,100452.72
2022-12-01T07:11:44.998Z,100450.88
2022-12-01T07:14:14.041Z,100449.03
2022-12-01T07:16:43.279Z,100442.81
2022-12-01T07:19:12.364Z,100449.84
2022-12-01T07:21:40.038Z,100449.84
2022-12-01T07:24:08.259Z,100465.81
2022-12-01T07:26:45.524Z,100462.06
2022-12-01T07:29:13.290Z,100466.66
2022-12-01T07:31:40.981Z,100480.13
2022-12-01T07:34:11.407Z,100476.38
2022-12-01T07:36:39.104Z,100477.19
2022-12-01T07:39:07.563Z,100467.28
2022-12-01T07:41:35.506Z,100469.75
2022-12-01T07:44:03.131Z,100462.50
2022-12-01T07:46:30.913Z,100467.88
2022-12-01T07:48:59.634Z,100464.16
2022-12-01T07:51:28.674Z,100462.09
2022-12-01T07:53:56.367Z,100467.50
2022-12-01T07:56:24.117Z,100460.22
2022-12-01T07:58:51.783Z,100473.72
2022-12-01T08:01:21.490Z,100457.31
2022-12-01T08:03:49.439Z,100461.06
2022-12-01T08:06:17.371Z,100468.09
2022-12-01T08:08:46.453Z,100473.50
2022-12-01T08:11:14.680Z,100472.66
2022-12-01T08:13:42.369Z,100464.56
2022-12-01T08:16:10.510Z,100455.66
2022-12-01T08:18:38.305Z,100457.31
2022-12-01T08:21:06.042Z,100464.38
2022-12-01T08:23:33.722Z,100479.50
2022-12-01T08:26:03.114Z,100476.81
2022-12-01T08:28:30.727Z,100478.47
2022-12-01T08:30:58.519Z,100484.72
2022-12-01T08:33:26.352Z,100476.63
2022-12-01T08:35:54.054Z,100484.72
2022-12-01T08:38:21.773Z,100479.31
2022-12-01T08:40:49.419Z,100480.97
2022-12-01T08:43:49.510Z,100486.34
2022-12-01T08:46:06.248Z,100474.75
2022-12-01T08:48:33.919Z,100481.78
2022-12-01T08:51:05.474Z,100488.00
2022-12-01T08:53:33.258Z,100486.16
2022-12-01T08:56:01.822Z,100488.22
2022-12-01T08:58:30.997Z,100480.97
2022-12-01T09:01:04.701Z,100499.63
2022-12-01T09:03:32.471Z,100496.31
2022-12-01T09:06:06.183Z,100492.97
2022-12-01T09:08:34.995Z,100499.19
2022-12-01T09:11:03.170Z,100492.97
2022-12-01T09:13:33.478Z,100493.81
2022-12-01T09:16:01.705Z,100488.63
2022-12-01T09:18:29.703Z,100486.78
2022-12-01T09:20:57.381Z,100481.38
2022-12-01T09:23:25.366Z,100495.88
2022-12-01T09:25:53.319Z,100486.97
2022-12-01T09:28:21.373Z,100489.66
2022-12-01T09:30:50.483Z,100488.63
2022-12-01T09:33:18.783Z,100478.88
2022-12-01T09:35:46.644Z,100471.84
2022-12-01T09:38:14.949Z,100476.81
2022-12-01T09:40:42.963Z,100483.84
2022-12-01T09:43:14.099Z,100482.84
2022-12-01T09:45:44.273Z,100478.06
2022-12-01T09:48:15.745Z,100473.50
2022-12-01T09:50:43.474Z,100468.94
2022-12-01T09:53:14.226Z,100473.28
2022-12-01T09:55:41.961Z,100472.47
2022-12-01T09:58:15.735Z,100476.19
2022-12-01T10:00:43.781Z,100461.91
2022-12-01T10:03:17.704Z,100465.63
2022-12-01T10:06:10.250Z,100469.34
2022-12-01T10:08:36.881Z,100464.16
2022-12-01T10:11:07.201Z,100464.97
2022-12-01T10:13:35.642Z,100464.97
2022-12-01T10:16:05.908Z,100460.44
2022-12-01T10:18:39.052Z,100464.38
2022-12-01T10:21:08.707Z,100467.69
2022-12-01T10:23:41.626Z,100461.47
2022-12-01T10:26:14.110Z,100469.34
2022-12-01T10:28:54.712Z,100462.28
2022-12-01T10:31:22.855Z,100459.59
2022-12-01T10:33:56.822Z,100455.88
2022-12-01T10:36:24.496Z,100462.09
2022-12-01T10:38:52.844Z,100454.84
2022-12-01T10:41:20.689Z,100458.16
2022-12-01T10:43:50.659Z,100453.59
2022-12-01T10:46:21.114Z,100468.34
2022-12-01T10:48:57.367Z,100453.19
2022-12-01T10:51:24.989Z,100454.41
2022-12-01T10:53:56.617Z,100456.09
2022-12-01T10:56:24.252Z,100453.19
2022-12-01T10:58:53.198Z,100456.06
2022-12-01T11:01:21.638Z,100457.94
2022-12-01T11:03:54.494Z,100454.63
2022-12-01T11:06:25.041Z,100454.63
2022-12-01T11:08:54.214Z,100454.84
2022-12-01T11:11:26.117Z,100457.72
2022-12-01T11:13:54.508Z,100456.72
2022-12-01T11:16:38.882Z,100453.38
2022-12-01T11:19:11.327Z,100449.88
2022-12-01T11:21:45.437Z,100450.47
2022-12-01T11:24:17.803Z,100455.66
2022-12-01T11:26:45.423Z,100448.22
2022-12-01T11:29:22.788Z,100456.91
2022-12-01T11:31:50.986Z,100453.19
2022-12-01T11:34:21.154Z,100452.13
2022-12-01T11:36:51.323Z,100456.50
2022-12-01T11:39:23.173Z,100454.41
2022-12-01T11:41:51.283Z,100453.59
2022-12-01T11:44:49.557Z,100451.53
2022-12-01T11:47:23.084Z,100450.72
2022-12-01T11:49:59.275Z,100441.56
2022-12-01T11:52:30.192Z,100453.19
2022-12-01T11:54:59.851Z,100443.44
2022-12-01T11:57:35.353Z,100455.06
2022-12-01T12:00:10.000Z,100456.72
2022-12-01T12:02:39.599Z,100446.97
2022-12-01T12:05:22.886Z,100454.03
2022-12-01T12:07:54.545Z,100455.69
2022-12-01T12:10:30.115Z,100454.03
2022-12-01T12:13:15.475Z,100450.28
2022-12-01T12:18:26.821Z,100453.81
2022-12-01T12:20:59.143Z,100460.88
2022-12-01T12:23:31.884Z,100462.53
2022-12-01T12:26:02.910Z,100459.84
2022-12-01T12:28:36.152Z,100460.66
2022-12-01T12:31:06.877Z,100457.97
2022-12-01T12:33:40.334Z,100453.19
2022-12-01T12:36:10.855Z,100454.03
2022-12-01T12:38:45.819Z,100461.06
2022-12-01T12:41:18.772Z,100458.38
2022-12-01T12:43:49.213Z,100461.06
2022-12-01T12:46:19.875Z,100458.16
2022-12-01T12:49:18.691Z,100455.47
2022-12-01T12:51:46.733Z,100457.34
2022-12-01T12:54:19.276Z,100464.38
2022-12-01T12:56:48.502Z,100458.16
2022-12-01T12:59:17.696Z,100466.25
2022-12-01T13:01:47.223Z,100463.56
2022-12-01T13:04:16.962Z,100469.78
2022-12-01T13:06:45.710Z,100474.34
2022-12-01T13:09:15.044Z,100472.47
2022-12-01T13:11:46.016Z,100476.22
2022-12-01T13:14:16.640Z,100475.41
2022-12-01T13:16:45.639Z,100473.53
2022-12-01T13:19:14.129Z,100464.38
2022-12-01T13:21:42.730Z,100472.47
2022-12-01T13:24:11.793Z,100474.34
2022-12-01T13:26:39.918Z,100465.22
2022-12-01T13:29:27.666Z,100471.47
2022-12-01T13:31:55.868Z,100468.53
2022-12-01T13:34:25.716Z,100474.75
2022-12-01T13:36:54.574Z,100477.25
2022-12-01T13:39:22.719Z,100469.16
2022-12-01T13:42:04.510Z,100463.78
2022-12-01T13:44:35.104Z,100468.13
2022-12-01T13:47:04.906Z,100468.13
2022-12-01T13:49:33.833Z,100468.97
2022-12-01T13:52:20.860Z,100461.72
2022-12-01T13:55:00.709Z,100466.06
2022-12-01T13:57:28.936Z,100455.94
2022-12-01T14:00:06.798Z,100458.63
2022-12-01T14:02:35.131Z,100460.28
2022-12-01T14:05:30.423Z,100460.28
2022-12-01T14:07:58.170Z,100452.81
2022-12-01T14:10:30.598Z,100467.94
2022-12-01T14:12:59.575Z,100461.53
2022-12-01T14:15:41.098Z,100464.84
2022-12-01T14:18:19.498Z,100450.31
2022-12-01T14:20:48.855Z,100457.34
2022-12-01T14:23:18.138Z,100462.56
2022-12-01T14:25:58.032Z,100456.97
2022-12-01T14:28:40.595Z,100453.22
2022-12-01T14:31:10.804Z,100444.94
2022-12-01T14:33:45.983Z,100457.38
2022-12-01T14:36:18.972Z,100456.56
2022-12-01T14:38:46.765Z,100460.88
2022-12-01T14:41:22.336Z,100452.81
2022-12-01T14:44:07.169Z,100469.81
2022-12-01T14:46:51.663Z,100462.53
2022-12-01T14:49:21.495Z,100461.53
2022-12-01T14:51:50.418Z,100463.16
2022-12-01T14:54:19.224Z,100455.06
2022-12-01T14:56:47.962Z,100456.75
2022-12-01T14:59:16.269Z,100454.06
2022-12-01T15:01:46.114Z,100456.53
2022-12-01T15:04:13.907Z,100455.69
2022-12-01T15:06:42.818Z,100463.78
2022-12-01T15:12:01.003Z,100469.81
2022-12-01T15:14:32.516Z,100471.69
2022-12-01T15:17:03.393Z,100461.72
2022-12-01T15:19:31.667Z,100477.91
2022-12-01T15:22:00.365Z,100476.03
2022-12-01T15:24:28.439Z,100472.28
2022-12-01T15:27:03.285Z,100472.28
2022-12-01T15:29:31.733Z,100462.56
2022-12-01T15:32:02.278Z,100476.03
2022-12-01T15:34:31.545Z,100476.03
2022-12-01T15:37:01.462Z,100465.25
2022-12-01T15:39:31.852Z,100474.16
2022-12-01T15:42:00.221Z,100469.81
2022-12-01T15:44:28.729Z,100467.13
2022-12-01T15:46:57.941Z,100462.56
2022-12-01T15:49:29.573Z,100458.22
2022-12-01T15:52:05.283Z,100450.31
2022-12-01T15:54:32.949Z,100457.34
2022-12-01T15:57:01.460Z,100452.81
2022-12-01T15:59:30.864Z,100457.34
2022-12-01T16:02:01.041Z,100451.97
2022-12-01T16:04:32.282Z,100460.06
2022-12-01T16:07:01.588Z,100458.41
2022-12-01T16:09:30.296Z,100464.84
2022-12-01T16:12:05.158Z,100463.78
2022-12-01T16:14:32.981Z,100464.84
2022-12-01T16:17:01.451Z,100464.84
2022-12-01T16:19:32.073Z,100467.53
2022-12-01T16:22:05.357Z,100467.53
2022-12-01T16:24:35.218Z,100471.25
2022-12-01T16:27:04.211Z,100468.56
2022-12-01T16:29:33.785Z,100463.16
2022-12-01T16:32:20.308Z,100468.56
2022-12-01T16:34:51.019Z,100461.53
2022-12-01T16:37:19.387Z,100462.53
2022-12-01T16:39:47.094Z,100468.97
2022-12-01T16:42:15.914Z,100478.13
2022-12-01T16:44:44.725Z,100479.78
2022-12-01T16:47:16.918Z,100475.44
2022-12-01T16:49:45.774Z,100476.44
2022-12-01T16:52:42.905Z,100464.84
2022-12-01T16:55:03.288Z,100465.66
2022-12-01T16:57:31.719Z,100467.75
2022-12-01T16:59:59.457Z,100481.00
2022-12-01T17:02:27.989Z,100473.97
2022-12-01T17:04:55.731Z,100478.53
2022-12-01T17:07:25.579Z,100478.53
2022-12-01T17:09:53.223Z,100475.00
2022-12-01T17:12:25.991Z,100483.94
2022-12-01T17:14:53.746Z,100486.84
2022-12-01T17:17:22.222Z,100487.03
2022-12-01T17:19:49.870Z,100495.13
2022-12-01T17:22:18.311Z,100492.41
2022-12-01T17:24:47.549Z,100500.50
2022-12-01T17:27:16.143Z,100495.13
2022-12-01T17:29:46.400Z,100498.84
2022-12-01T17:32:15.988Z,100496.16
2022-12-01T17:34:46.371Z,100497.22
2022-12-01T17:37:20.698Z,100499.06
2022-12-01T17:39:50.316Z,100495.53
2022-12-01T17:42:19.946Z,100498.22
2022-12-01T17:45:03.196Z,100496.59
2022-12-01T17:47:32.224Z,100496.59
2022-12-01T17:49:59.898Z,100501.97
2022-12-01T17:52:28.705Z,100506.53
2022-12-01T17:54:58.084Z,100511.09
2022-12-01T17:57:26.997Z,100500.31
2022-12-01T17:59:55.384Z,100516.47
2022-12-01T18:02:24.380Z,100500.31
2022-12-01T18:04:53.151Z,100506.75
2022-12-01T18:07:21.124Z,100501.34
2022-12-01T18:09:49.468Z,100508.63
2022-12-01T18:12:18.512Z,100502.41
2022-12-01T18:14:47.207Z,100505.09
2022-12-01T18:17:15.139Z,100505.09
2022-12-01T18:19:44.460Z,100506.09
2022-12-01T18:22:12.181Z,100503.41
2022-12-01T18:24:40.623Z,100501.53
2022-12-01T18:27:08.258Z,100503.41
2022-12-01T18:29:38.055Z,100507.16
2022-12-01T18:32:05.687Z,100504.47
2022-12-01T18:34:34.786Z,100507.16
2022-12-01T18:37:03.253Z,100509.84
2022-12-01T18:39:31.742Z,100505.47
2022-12-01T18:41:59.413Z,100513.56
2022-12-01T18:44:27.874Z,100511.88
2022-12-01T18:46:59.059Z,100519.97
2022-12-01T18:49:28.103Z,100520.81
2022-12-01T18:51:55.833Z,100522.69
2022-12-01T18:54:28.015Z,100521.03
2022-12-01T18:56:58.947Z,100518.31
2022-12-01T18:59:29.419Z,100522.03
2022-12-01T19:01:58.500Z,100521.22
2022-12-01T19:04:26.962Z,100513.94
2022-12-01T19:06:55.019Z,100524.75
2022-12-01T19:09:23.565Z,100516.66
2022-12-01T19:11:58.779Z,100522.91
2022-12-01T19:14:29.112Z,100522.03
2022-12-01T19:16:58.147Z,100522.69
2022-12-01T19:19:27.145Z,100525.38
2022-12-01T19:21:55.960Z,100525.38
2022-12-01T19:24:24.476Z,100528.88
2022-12-01T19:26:52.358Z,100525.38
2022-12-01T19:29:20.816Z,100532.44
2022-12-01T19:31:48.605Z,100536.81
2022-12-01T19:34:21.055Z,100531.44
2022-12-01T19:36:49.855Z,100534.13
2022-12-01T19:39:20.107Z,100533.25
2022-12-01T19:41:47.739Z,100535.31
2022-12-01T19:44:16.182Z,100542.22
2022-12-01T19:46:43.841Z,100534.13
2022-12-01T19:49:16.190Z,100543.22
2022-12-01T19:51:45.220Z,100537.84
2022-12-01T19:54:14.818Z,100547.75
2022-12-01T19:56:42.590Z,100547.75
2022-12-01T19:59:12.374Z,100543.22
2022-12-01T20:01:40.098Z,100545.91
2022-12-01T20:04:08.704Z,100545.06
2022-12-01T20:06:36.724Z,100541.53
2022-12-01T20:09:07.009Z,100549.63
2022-12-01T20:11:35.413Z,100546.94
2022-12-01T20:14:04.135Z,100548.63
2022-12-01T20:16:32.200Z,100550.31
2022-12-01T20:19:00.864Z,100541.97
2022-12-01T20:21:30.081Z,100548.25
2022-12-01T20:23:58.786Z,100549.88
2022-12-01T20:26:30.809Z,100551.53
2022-12-01T20:28:59.755Z,100546.78
2022-12-01T20:31:32.225Z,100549.69
2022-12-01T20:34:03.615Z,100554.84
2022-12-01T20:36:32.122Z,100551.16
2022-12-01T20:38:59.756Z,100545.75
2022-12-01T20:41:30.100Z,100548.44
2022-12-01T20:44:00.148Z,100551.16
2022-12-01T20:46:32.300Z,100551.97
2022-12-01T20:49:00.003Z,100559.84
2022-12-01T20:51:28.879Z,100551.75
2022-12-01T20:54:26.400Z,100554.44
2022-12-01T20:56:46.335Z,100552.59
2022-12-01T20:59:14.055Z,100556.13
2022-12-01T21:01:42.513Z,100561.50
2022-12-01T21:04:10.129Z,100562.53
2022-12-01T21:06:40.180Z,100558.00
2022-12-01T21:09:09.889Z,100558.81
2022-12-01T21:12:00.371Z,100541.81
2022-12-01T21:14:30.654Z,100541.59
2022-12-01T21:34:39.220Z,100530.81
2022-12-01T21:37:10.159Z,100534.13
2022-12-01T21:39:37.836Z,100534.97
2022-12-01T21:42:10.927Z,100529.56
2022-12-01T21:44:39.441Z,100538.69
2022-12-01T21:57:45.336Z,100537.66
2022-12-01T22:00:25.009Z,100533.28
2022-12-01T22:06:30.436Z,100546.13
2022-12-01T22:08:59.258Z,100532.66
2022-12-01T22:11:27.729Z,100540.16
2022-12-01T22:14:00.701Z,100533.91
2022-12-01T22:20:39.323Z,100545.91
2022-12-01T22:23:10.131Z,100541.53
2022-12-01T22:25:39.263Z,100548.00
2022-12-01T22:28:09.362Z,100544.47
2022-12-01T22:30:38.405Z,100532.81
2022-12-01T22:36:39.174Z,100536.56
2022-12-01T22:39:07.551Z,100538.44
2022-12-01T22:41:35.956Z,100532.22
2022-12-01T22:44:03.597Z,100534.06
2022-12-01T22:46:34.349Z,100536.56
2022-12-01T22:49:03.161Z,100526.84
2022-12-01T22:51:32.628Z,100535.75
2022-12-01T22:54:01.616Z,100534.91
2022-12-01T22:56:33.526Z,100528.66
2022-12-01T22:59:01.351Z,100517.06
2022-12-01T23:41:56.298Z,100515.63
2022-12-01T23:44:24.938Z,100511.25
